createdAt,value
2019-05-23T00:00:42.939Z,3.70
2019-05-23T00:03:13.221Z,4.57
2019-05-23T00:05:43.447Z,4.03
2019-05-23T00:08:13.730Z,3.67
2019-05-23T00:10:46.602Z,4.20
2019-05-23T00:13:16.640Z,5.10
2019-05-23T00:15:47.135Z,4.20
2019-05-23T00:18:21.088Z,4.33
2019-05-23T00:20:49.647Z,4.83
2019-05-23T00:23:19.411Z,3.73
2019-05-23T00:25:49.481Z,3.50
2019-05-23T00:28:17.919Z,3.63
2019-05-23T00:30:50.910Z,4.00
2019-05-23T00:33:21.625Z,4.13
2019-05-23T00:35:51.462Z,4.10
2019-05-23T00:38:21.274Z,3.80
2019-05-23T00:40:50.662Z,4.03
2019-05-23T00:43:19.916Z,4.40
2019-05-23T00:45:48.901Z,4.17
2019-05-23T00:48:18.278Z,3.70
2019-05-23T00:50:48.812Z,3.73
2019-05-23T00:53:17.288Z,4.10
2019-05-23T00:55:47.339Z,3.43
2019-05-23T00:58:16.791Z,3.73
2019-05-23T01:00:45.620Z,4.20
2019-05-23T01:03:16.466Z,3.87
2019-05-23T01:05:44.882Z,4.20
2019-05-23T01:08:13.977Z,4.57
2019-05-23T01:10:44.019Z,3.93
2019-05-23T01:13:15.137Z,4.00
2019-05-23T01:15:44.287Z,4.23
2019-05-23T01:18:13.414Z,4.30
2019-05-23T01:21:01.686Z,3.77
2019-05-23T01:23:38.070Z,4.03
2019-05-23T01:26:06.571Z,4.47
2019-05-23T01:28:35.110Z,3.90
2019-05-23T01:31:05.240Z,4.00
2019-05-23T01:33:34.608Z,3.77
2019-05-23T01:36:04.064Z,3.70
2019-05-23T01:38:33.035Z,4.03
2019-05-23T01:41:01.795Z,3.87
2019-05-23T01:43:32.148Z,4.70
2019-05-23T01:46:00.855Z,4.03
2019-05-23T01:48:30.008Z,4.30
2019-05-23T01:50:59.010Z,3.90
2019-05-23T01:53:27.650Z,3.70
2019-05-23T01:55:56.136Z,4.13
2019-05-23T01:58:24.683Z,4.10
2019-05-23T02:00:53.438Z,3.77
2019-05-23T02:03:22.459Z,3.90
2019-05-23T02:05:50.943Z,3.90
2019-05-23T02:08:19.358Z,4.50
2019-05-23T02:10:48.809Z,3.83
2019-05-23T02:13:17.603Z,3.77
2019-05-23T02:15:46.776Z,4.33
2019-05-23T02:18:15.649Z,3.73
2019-05-23T02:20:45.808Z,3.73
2019-05-23T02:23:14.448Z,3.80
2019-05-23T02:25:42.968Z,3.57
2019-05-23T02:28:12.385Z,3.73
2019-05-23T02:30:41.058Z,4.40
2019-05-23T02:33:10.204Z,4.87
2019-05-23T02:35:40.578Z,3.80
2019-05-23T02:38:13.489Z,4.30
2019-05-23T02:40:46.806Z,3.63
2019-05-23T02:43:17.996Z,5.17
2019-05-23T02:45:53.088Z,4.47
2019-05-23T02:48:24.198Z,4.70
2019-05-23T02:50:59.875Z,4.00
2019-05-23T02:53:31.340Z,4.37
2019-05-23T02:56:03.761Z,4.47
2019-05-23T02:58:36.584Z,5.03
2019-05-23T03:01:11.101Z,4.27
2019-05-23T03:03:39.495Z,5.10
2019-05-23T03:06:12.888Z,4.17
2019-05-23T03:08:41.934Z,4.17
2019-05-23T03:11:19.452Z,3.93
2019-05-23T03:13:48.104Z,4.07
2019-05-23T03:16:19.352Z,4.27
2019-05-23T03:18:51.226Z,4.37
2019-05-23T03:21:19.646Z,4.20
2019-05-23T03:23:49.312Z,4.70
2019-05-23T03:26:39.858Z,4.37
2019-05-23T03:29:08.765Z,4.63
2019-05-23T03:31:40.411Z,4.73
2019-05-23T03:34:10.455Z,4.47
2019-05-23T03:36:39.144Z,3.93
2019-05-23T03:39:10.536Z,4.30
2019-05-23T03:41:39.453Z,3.60
2019-05-23T03:44:08.911Z,3.97
2019-05-23T03:46:39.070Z,4.13
2019-05-23T03:49:08.923Z,4.60
2019-05-23T03:51:37.342Z,3.90
2019-05-23T03:54:05.839Z,4.23
2019-05-23T03:56:35.140Z,4.20
2019-05-23T03:59:04.712Z,4.27
2019-05-23T04:01:47.167Z,4.40
2019-05-23T04:04:06.345Z,4.10
2019-05-23T04:06:34.796Z,4.70
2019-05-23T04:09:06.193Z,4.57
2019-05-23T04:11:34.673Z,4.90
2019-05-23T04:14:03.517Z,4.30
2019-05-23T04:16:32.349Z,4.60
2019-05-23T04:19:02.859Z,4.27
2019-05-23T04:21:31.458Z,5.00
2019-05-23T04:23:59.940Z,4.07
2019-05-23T04:26:28.516Z,4.37
2019-05-23T04:28:58.082Z,4.33
2019-05-23T04:31:26.483Z,4.13
2019-05-23T04:33:54.898Z,4.30
2019-05-23T04:36:23.304Z,4.10
2019-05-23T04:38:51.909Z,4.37
2019-05-23T04:41:20.353Z,3.93
2019-05-23T04:43:48.913Z,4.63
2019-05-23T04:46:17.461Z,4.07
2019-05-23T04:48:45.876Z,3.87
2019-05-23T04:51:15.013Z,4.40
2019-05-23T04:53:43.502Z,4.30
2019-05-23T04:56:12.471Z,3.97
2019-05-23T04:58:41.159Z,3.87
2019-05-23T05:01:10.685Z,4.00
2019-05-23T05:03:39.816Z,3.73
2019-05-23T05:06:08.288Z,4.70
2019-05-23T05:08:36.750Z,4.57
2019-05-23T05:11:05.418Z,4.83
2019-05-23T05:13:34.421Z,4.53
2019-05-23T05:16:02.818Z,4.47
2019-05-23T05:18:31.302Z,4.57
2019-05-23T05:20:59.706Z,4.63
2019-05-23T05:23:28.115Z,3.70
2019-05-23T05:25:56.513Z,4.90
2019-05-23T05:28:24.928Z,3.73
2019-05-23T05:30:53.493Z,3.83
2019-05-23T05:33:22.074Z,4.33
2019-05-23T05:35:50.545Z,4.17
2019-05-23T05:38:19.531Z,4.20
2019-05-23T05:40:47.998Z,4.43
2019-05-23T05:43:17.091Z,3.90
2019-05-23T05:45:45.486Z,5.00
2019-05-23T05:48:13.939Z,4.73
2019-05-23T05:50:42.883Z,3.97
2019-05-23T05:53:11.469Z,5.40
2019-05-23T05:55:39.866Z,5.50
2019-05-23T05:58:08.297Z,4.70
2019-05-23T06:00:46.946Z,4.90
2019-05-23T06:03:15.641Z,4.30
2019-05-23T06:06:00.558Z,4.00
2019-05-23T06:08:30.898Z,4.63
2019-05-23T06:10:59.349Z,4.37
2019-05-23T06:13:28.125Z,4.50
2019-05-23T06:15:56.697Z,4.83
2019-05-23T06:18:25.215Z,4.83
2019-05-23T06:20:54.192Z,5.30
2019-05-23T06:23:23.021Z,4.07
2019-05-23T06:25:51.504Z,5.30
2019-05-23T06:28:20.201Z,5.93
2019-05-23T06:30:50.709Z,4.33
2019-05-23T06:33:23.738Z,6.37
2019-05-23T06:35:50.044Z,7.23
2019-05-23T06:38:18.720Z,8.03
2019-05-23T06:40:47.860Z,10.27
2019-05-23T06:43:16.405Z,6.87
2019-05-23T06:45:45.761Z,7.60
2019-05-23T06:48:15.417Z,7.27
2019-05-23T06:50:44.105Z,7.37
2019-05-23T06:53:12.608Z,5.90
2019-05-23T06:55:41.019Z,6.20
2019-05-23T06:58:09.413Z,5.10
2019-05-23T07:00:38.237Z,4.93
2019-05-23T07:03:07.279Z,4.13
2019-05-23T07:05:36.813Z,4.70
2019-05-23T07:08:06.758Z,3.47
2019-05-23T07:10:35.421Z,3.83
2019-05-23T07:13:04.544Z,3.13
2019-05-23T07:15:33.201Z,3.03
2019-05-23T07:18:02.163Z,3.07
2019-05-23T07:20:31.032Z,3.13
2019-05-23T07:22:59.676Z,2.40
2019-05-23T07:25:28.262Z,2.13
2019-05-23T07:27:56.740Z,2.30
2019-05-23T07:30:27.390Z,2.00
2019-05-23T07:32:55.959Z,2.10
2019-05-23T07:35:24.540Z,2.00
2019-05-23T07:37:52.923Z,2.00
2019-05-23T07:40:23.621Z,1.43
2019-05-23T07:42:52.112Z,1.40
2019-05-23T07:45:27.871Z,1.30
2019-05-23T07:47:56.287Z,1.40
2019-05-23T07:50:24.692Z,1.30
2019-05-23T07:52:54.986Z,1.00
2019-05-23T07:55:27.887Z,1.97
2019-05-23T07:57:56.388Z,1.30
2019-05-23T08:00:35.269Z,1.27
2019-05-23T08:03:05.284Z,1.33
2019-05-23T08:05:34.430Z,1.17
2019-05-23T08:08:03.463Z,1.43
2019-05-23T08:10:34.011Z,1.03
2019-05-23T08:13:02.479Z,0.90
2019-05-23T08:15:31.231Z,1.00
2019-05-23T08:17:59.925Z,1.07
2019-05-23T08:20:28.398Z,1.00
2019-05-23T08:22:56.974Z,1.00
2019-05-23T08:25:25.395Z,1.07
2019-05-23T08:27:53.797Z,1.10
2019-05-23T08:30:22.447Z,1.00
2019-05-23T08:32:51.192Z,1.20
2019-05-23T08:35:20.017Z,0.90
2019-05-23T08:37:48.606Z,0.70
2019-05-23T08:40:18.851Z,1.03
2019-05-23T08:42:47.258Z,0.97
2019-05-23T08:45:17.687Z,0.80
2019-05-23T08:47:46.112Z,0.70
2019-05-23T08:50:16.950Z,0.87
2019-05-23T08:52:45.585Z,0.70
2019-05-23T08:55:17.271Z,0.60
2019-05-23T08:57:45.731Z,0.80
2019-05-23T09:00:15.097Z,0.80
2019-05-23T09:02:43.841Z,0.70
2019-05-23T09:05:12.523Z,0.40
2019-05-23T09:07:41.313Z,0.60
2019-05-23T09:10:09.969Z,0.53
2019-05-23T09:12:38.560Z,0.60
2019-05-23T09:15:09.849Z,0.53
2019-05-23T09:17:52.507Z,0.63
2019-05-23T09:20:09.275Z,0.63
2019-05-23T09:22:38.913Z,1.00
2019-05-23T09:25:08.460Z,0.70
2019-05-23T09:27:37.423Z,0.80
2019-05-23T09:30:08.331Z,0.50
2019-05-23T09:32:36.812Z,0.70
2019-05-23T09:35:20.210Z,0.70
2019-05-23T09:37:37.937Z,0.80
2019-05-23T09:40:07.620Z,0.80
2019-05-23T09:42:36.114Z,0.70
2019-05-23T09:45:06.172Z,0.70
2019-05-23T09:47:34.666Z,0.73
2019-05-23T09:50:05.586Z,0.80
2019-05-23T09:52:34.269Z,0.73
2019-05-23T09:55:02.689Z,0.80
2019-05-23T09:57:31.228Z,0.87
2019-05-23T09:59:59.599Z,0.70
2019-05-23T10:02:28.092Z,0.80
2019-05-23T10:04:57.145Z,0.90
2019-05-23T10:07:26.437Z,0.70
2019-05-23T10:09:55.013Z,0.87
2019-05-23T10:12:23.598Z,0.60
2019-05-23T10:14:52.071Z,0.70
2019-05-23T10:17:20.496Z,1.10
2019-05-23T10:19:48.902Z,0.90
2019-05-23T10:22:17.599Z,0.60
2019-05-23T10:24:46.035Z,0.83
2019-05-23T10:27:16.099Z,1.00
2019-05-23T10:29:44.509Z,0.93
2019-05-23T10:32:13.702Z,0.87
2019-05-23T10:34:42.223Z,0.80
2019-05-23T10:37:12.237Z,0.70
2019-05-23T10:39:43.712Z,0.90
2019-05-23T10:42:12.503Z,1.10
2019-05-23T10:44:44.788Z,0.73
2019-05-23T10:47:11.125Z,0.73
2019-05-23T10:49:39.532Z,0.73
2019-05-23T10:52:07.950Z,0.70
2019-05-23T10:54:36.365Z,1.00
2019-05-23T10:57:05.017Z,0.80
2019-05-23T10:59:33.550Z,0.90
2019-05-23T11:02:02.002Z,0.70
2019-05-23T11:04:30.420Z,0.97
2019-05-23T11:06:58.994Z,0.90
2019-05-23T11:09:37.303Z,1.10
2019-05-23T11:11:57.881Z,0.80
2019-05-23T11:14:26.540Z,0.87
2019-05-23T11:16:55.398Z,1.00
2019-05-23T11:19:23.874Z,0.73
2019-05-23T11:21:52.296Z,1.27
2019-05-23T11:24:20.913Z,0.90
2019-05-23T11:26:49.563Z,0.60
2019-05-23T11:29:18.143Z,0.90
2019-05-23T11:31:46.678Z,1.17
2019-05-23T11:34:15.101Z,0.67
2019-05-23T11:36:43.569Z,0.80
2019-05-23T11:39:13.263Z,0.73
2019-05-23T11:41:41.664Z,0.93
2019-05-23T11:44:10.184Z,0.77
2019-05-23T11:46:39.557Z,0.90
2019-05-23T11:49:08.425Z,1.03
2019-05-23T11:51:37.580Z,0.90
2019-05-23T11:54:09.195Z,0.90
2019-05-23T11:56:36.964Z,0.70
2019-05-23T11:59:05.664Z,0.80
2019-05-23T12:01:41.810Z,0.70
2019-05-23T12:04:14.692Z,1.13
2019-05-23T12:06:55.181Z,0.90
2019-05-23T12:09:15.224Z,0.70
2019-05-23T12:11:44.038Z,0.70
2019-05-23T12:14:12.443Z,1.17
2019-05-23T12:16:41.700Z,1.60
2019-05-23T12:19:10.505Z,1.20
2019-05-23T12:21:38.906Z,0.87
2019-05-23T12:24:07.597Z,1.03
2019-05-23T12:26:36.893Z,0.73
2019-05-23T12:29:05.435Z,0.73
2019-05-23T12:31:33.845Z,1.00
2019-05-23T12:34:02.270Z,0.70
2019-05-23T12:36:31.350Z,0.80
2019-05-23T12:38:59.780Z,0.83
2019-05-23T12:41:28.183Z,0.70
2019-05-23T12:43:56.618Z,0.67
2019-05-23T12:46:25.031Z,0.60
2019-05-23T12:49:01.011Z,0.80
2019-05-23T12:51:39.715Z,1.33
2019-05-23T12:54:08.410Z,1.33
2019-05-23T12:56:37.030Z,1.50
2019-05-23T12:59:06.096Z,0.90
2019-05-23T13:01:36.281Z,0.80
2019-05-23T13:04:09.920Z,0.93
2019-05-23T13:06:35.443Z,1.10
2019-05-23T13:09:05.393Z,1.13
2019-05-23T13:11:33.878Z,0.83
2019-05-23T13:14:02.400Z,0.97
2019-05-23T13:16:31.168Z,0.90
2019-05-23T13:18:59.663Z,1.10
2019-05-23T13:21:28.498Z,1.10
2019-05-23T13:23:56.919Z,1.17
2019-05-23T13:26:25.701Z,0.80
2019-05-23T13:28:54.147Z,1.17
2019-05-23T13:31:22.550Z,0.90
2019-05-23T13:33:50.964Z,1.10
2019-05-23T13:36:19.385Z,0.80
2019-05-23T13:38:48.070Z,0.87
2019-05-23T13:41:16.706Z,1.13
2019-05-23T13:43:45.357Z,1.00
2019-05-23T13:46:13.996Z,0.93
2019-05-23T13:48:42.551Z,0.80
2019-05-23T13:51:10.944Z,0.90
2019-05-23T13:53:39.431Z,0.90
2019-05-23T13:56:08.276Z,1.00
2019-05-23T13:58:36.961Z,1.10
2019-05-23T14:01:09.234Z,1.30
2019-05-23T14:03:36.054Z,1.10
2019-05-23T14:06:04.993Z,1.30
2019-05-23T14:08:33.391Z,1.13
2019-05-23T14:11:01.816Z,1.20
2019-05-23T14:17:23.676Z,1.57
2019-05-23T14:19:52.152Z,1.10
2019-05-23T14:22:21.969Z,1.43
2019-05-23T14:24:50.391Z,1.10
2019-05-23T14:27:20.931Z,1.10
2019-05-23T14:29:49.465Z,1.50
2019-05-23T14:32:22.135Z,1.40
2019-05-23T14:34:52.228Z,1.30
2019-05-23T14:37:22.496Z,1.50
2019-05-23T14:39:52.116Z,1.43
2019-05-23T14:42:22.164Z,1.37
2019-05-23T14:44:52.171Z,1.20
2019-05-23T14:47:25.135Z,1.13
2019-05-23T14:49:55.288Z,1.30
2019-05-23T14:52:25.315Z,0.73
2019-05-23T14:54:56.177Z,1.00
2019-05-23T14:57:24.621Z,0.80
2019-05-23T14:59:53.107Z,1.13
2019-05-23T15:02:21.733Z,1.17
2019-05-23T15:04:50.144Z,0.87
2019-05-23T15:07:18.550Z,1.40
2019-05-23T15:09:46.976Z,0.97
2019-05-23T15:12:15.567Z,1.30
2019-05-23T15:14:44.092Z,0.90
2019-05-23T15:17:12.609Z,1.10
2019-05-23T15:19:45.146Z,1.33
2019-05-23T15:22:11.235Z,1.20
2019-05-23T15:24:39.866Z,1.20
2019-05-23T15:27:08.645Z,1.20
2019-05-23T15:29:37.046Z,1.40
2019-05-23T15:32:05.535Z,1.47
2019-05-23T15:34:35.221Z,2.13
2019-05-23T15:37:04.007Z,1.33
2019-05-23T15:39:32.511Z,1.50
2019-05-23T15:42:00.963Z,1.40
2019-05-23T15:44:30.369Z,1.13
2019-05-23T15:46:59.133Z,1.60
2019-05-23T15:49:28.277Z,1.43
2019-05-23T15:51:58.512Z,1.20
2019-05-23T15:54:37.353Z,1.30
2019-05-23T15:57:13.186Z,0.93
2019-05-23T15:59:43.231Z,1.10
2019-05-23T16:02:21.963Z,1.10
2019-05-23T16:04:51.352Z,1.50
2019-05-23T16:07:20.444Z,0.90
2019-05-23T16:09:49.024Z,1.17
2019-05-23T16:12:17.815Z,1.30
2019-05-23T16:18:08.654Z,1.03
2019-05-23T16:20:37.339Z,1.10
2019-05-23T16:23:05.752Z,0.90
2019-05-23T16:25:34.236Z,1.10
2019-05-23T16:28:02.674Z,0.93
2019-05-23T16:30:31.180Z,1.00
2019-05-23T16:32:59.604Z,1.37
2019-05-23T16:35:28.168Z,1.37
2019-05-23T16:37:56.749Z,1.30
2019-05-23T16:40:25.557Z,1.53
2019-05-23T16:42:54.054Z,1.20
2019-05-23T16:45:22.482Z,0.97
2019-05-23T16:47:51.082Z,1.27
2019-05-23T16:50:19.479Z,1.40
2019-05-23T16:52:47.969Z,0.90
2019-05-23T16:55:18.108Z,1.87
2019-05-23T16:57:53.933Z,1.60
2019-05-23T17:00:39.304Z,0.90
2019-05-23T17:03:12.365Z,1.20
2019-05-23T17:05:54.878Z,1.30
2019-05-23T17:08:36.804Z,1.00
2019-05-23T17:11:23.223Z,1.40
2019-05-23T17:13:56.277Z,1.20
2019-05-23T17:16:26.336Z,0.90
2019-05-23T17:18:59.331Z,1.27
2019-05-23T17:21:44.297Z,1.00
2019-05-23T17:24:17.234Z,1.30
2019-05-23T17:26:59.319Z,1.43
2019-05-23T17:29:35.207Z,1.17
2019-05-23T17:32:05.338Z,1.47
2019-05-23T17:34:33.738Z,1.77
2019-05-23T17:37:02.623Z,1.13
2019-05-23T17:39:31.311Z,1.43
2019-05-23T17:42:01.411Z,1.20
2019-05-23T17:44:29.789Z,1.23
2019-05-23T17:46:58.208Z,1.20
2019-05-23T17:49:26.612Z,1.57
2019-05-23T17:51:55.396Z,1.00
2019-05-23T17:54:24.103Z,1.40
2019-05-23T17:56:52.579Z,0.90
2019-05-23T17:59:20.972Z,1.03
2019-05-23T18:01:49.722Z,1.20
2019-05-23T18:04:18.396Z,1.17
2019-05-23T18:06:46.814Z,1.47
2019-05-23T18:09:16.265Z,1.20
2019-05-23T18:11:46.324Z,1.47
2019-05-23T18:14:15.462Z,1.37
2019-05-23T18:16:44.507Z,0.83
2019-05-23T18:19:14.608Z,1.30
2019-05-23T18:21:43.296Z,1.57
2019-05-23T18:24:13.726Z,2.00
2019-05-23T18:26:42.127Z,1.73
2019-05-23T18:29:10.545Z,1.93
2019-05-23T18:31:41.110Z,1.70
2019-05-23T18:34:11.278Z,1.30
2019-05-23T18:36:40.491Z,1.70
2019-05-23T18:39:10.142Z,1.60
2019-05-23T18:41:38.907Z,1.53
2019-05-23T18:44:07.403Z,1.90
2019-05-23T18:46:40.051Z,1.63
2019-05-23T18:49:09.941Z,1.90
2019-05-23T18:51:39.225Z,1.37
2019-05-23T18:54:07.826Z,1.30
2019-05-23T18:56:36.176Z,1.10
2019-05-23T18:59:05.891Z,1.20
2019-05-23T19:01:34.402Z,1.30
2019-05-23T19:04:02.799Z,1.20
2019-05-23T19:06:31.221Z,1.37
2019-05-23T19:09:00.267Z,1.40
2019-05-23T19:11:29.307Z,1.30
2019-05-23T19:13:57.738Z,1.80
2019-05-23T19:16:26.467Z,1.13
2019-05-23T19:18:54.879Z,1.70
2019-05-23T19:21:23.359Z,2.17
2019-05-23T19:23:51.779Z,1.40
2019-05-23T19:26:20.254Z,1.97
2019-05-23T19:28:48.678Z,1.50
2019-05-23T19:31:17.519Z,1.57
2019-05-23T19:33:46.949Z,1.30
2019-05-23T19:36:16.564Z,1.33
2019-05-23T19:38:45.094Z,1.30
2019-05-23T19:41:13.642Z,2.00
2019-05-23T19:43:42.460Z,1.40
2019-05-23T19:46:11.880Z,1.87
2019-05-23T19:48:41.132Z,1.67
2019-05-23T19:51:10.177Z,1.73
2019-05-23T19:53:38.853Z,2.17
2019-05-23T19:56:09.004Z,1.67
2019-05-23T19:58:37.522Z,1.67
2019-05-23T20:01:06.609Z,1.83
2019-05-23T20:03:35.535Z,2.00
2019-05-23T20:06:05.360Z,2.00
2019-05-23T20:08:33.775Z,1.60
2019-05-23T20:11:02.439Z,1.70
2019-05-23T20:13:31.046Z,1.90
2019-05-23T20:15:59.619Z,1.77
2019-05-23T20:18:28.309Z,2.10
2019-05-23T20:20:57.144Z,1.70
2019-05-23T20:23:25.705Z,1.97
2019-05-23T20:25:54.141Z,2.10
2019-05-23T20:28:23.229Z,2.20
2019-05-23T20:30:52.639Z,2.10
2019-05-23T20:33:21.238Z,2.33
2019-05-23T20:35:49.907Z,2.43
2019-05-23T20:38:18.965Z,2.07
2019-05-23T20:40:47.368Z,2.30
2019-05-23T20:43:16.278Z,1.87
2019-05-23T20:45:44.791Z,2.60
2019-05-23T20:48:13.199Z,2.80
2019-05-23T20:50:41.615Z,2.03
2019-05-23T20:53:10.091Z,2.50
2019-05-23T20:55:38.578Z,2.73
2019-05-23T20:58:07.121Z,2.87
2019-05-23T21:00:48.874Z,2.97
2019-05-23T21:03:17.561Z,2.30
2019-05-23T21:05:46.142Z,3.17
2019-05-23T21:08:14.734Z,3.27
2019-05-23T21:10:46.259Z,2.63
2019-05-23T21:13:14.694Z,2.70
2019-05-23T21:15:43.460Z,2.73
2019-05-23T21:18:12.771Z,3.60
2019-05-23T21:20:41.263Z,2.93
2019-05-23T21:23:10.023Z,3.00
2019-05-23T21:25:40.146Z,2.87
2019-05-23T21:28:08.557Z,3.20
2019-05-23T21:30:36.971Z,3.13
2019-05-23T21:33:05.962Z,3.00
2019-05-23T21:35:34.586Z,2.90
2019-05-23T21:38:03.085Z,3.37
2019-05-23T21:40:37.604Z,3.80
2019-05-23T21:43:06.456Z,3.70
2019-05-23T21:45:34.854Z,3.43
2019-05-23T21:48:03.753Z,3.30
2019-05-23T21:50:32.289Z,2.90
2019-05-23T21:53:00.697Z,3.33
2019-05-23T21:55:40.854Z,3.50
2019-05-23T21:58:11.813Z,3.00
2019-05-23T22:01:02.368Z,3.20
2019-05-23T22:03:32.483Z,3.73
2019-05-23T22:06:01.341Z,3.33
2019-05-23T22:08:29.813Z,3.23
2019-05-23T22:10:58.225Z,3.27
2019-05-23T22:13:26.808Z,2.70
2019-05-23T22:15:56.883Z,2.93
2019-05-23T22:18:25.697Z,3.17
2019-05-23T22:20:54.112Z,3.33
2019-05-23T22:23:22.584Z,3.10
2019-05-23T22:25:51.029Z,2.90
2019-05-23T22:28:19.791Z,2.77
2019-05-23T22:30:48.276Z,3.07
2019-05-23T22:33:18.594Z,2.90
2019-05-23T22:35:47.017Z,3.20
2019-05-23T22:38:15.587Z,3.73
2019-05-23T22:40:44.089Z,3.27
2019-05-23T22:43:20.673Z,3.33
2019-05-23T22:45:42.707Z,3.80
2019-05-23T22:48:11.111Z,3.17
2019-05-23T22:50:39.547Z,4.40
2019-05-23T22:53:07.950Z,3.23
2019-05-23T22:55:36.377Z,3.40
2019-05-23T22:58:06.027Z,3.63
2019-05-23T23:00:36.153Z,3.00
2019-05-23T23:03:04.629Z,3.20
2019-05-23T23:05:33.118Z,3.00
2019-05-23T23:08:01.901Z,3.00
2019-05-23T23:10:30.331Z,3.03
2019-05-23T23:12:58.735Z,2.30
2019-05-23T23:15:28.936Z,3.30
2019-05-23T23:17:57.328Z,3.33
2019-05-23T23:20:25.744Z,2.50
2019-05-23T23:22:54.160Z,2.70
2019-05-23T23:25:22.575Z,2.40
2019-05-23T23:27:50.983Z,2.30
2019-05-23T23:30:22.093Z,3.10
2019-05-23T23:32:50.485Z,3.40
2019-05-23T23:35:18.887Z,3.20
2019-05-23T23:37:47.306Z,2.60
2019-05-23T23:40:15.808Z,2.60
2019-05-23T23:42:44.315Z,2.97
2019-05-23T23:45:30.667Z,3.10
2019-05-23T23:48:16.638Z,3.10
2019-05-23T23:51:02.872Z,3.20
2019-05-23T23:53:49.185Z,2.47
2019-05-23T23:56:35.246Z,2.77
2019-05-23T23:59:02.905Z,2.97
